Time;durP1;ratioP1;P1;durP2;ratioP2;P2;SDS_P1;SDS_P2;PMS_P1;PMS_P2;Temp;Humidity;BMP_temperature;BMP_pressure;BME280_temperature;BME280_humidity;BME280_pressure;Samples;Min_cycle;Max_cycle;Signal;HPM_P1;HPM_P2
2023/07/10 00:01:05;;;;;;;6.97;3.92;;;;;;;;;;5092884;28;20451;-64
2023/07/10 00:03:30;;;;;;;8.60;5.30;;;;;;;;;;5093671;28;20032;-64
2023/07/10 00:05:56;;;;;;;5.63;3.75;;;;;;;;;;5092938;28;20501;-64
2023/07/10 00:08:21;;;;;;;7.15;5.22;;;;;;;;;;5093527;28;20020;-64
2023/07/10 00:10:46;;;;;;;6.63;4.20;;;;;;;;;;5093184;28;20063;-64
2023/07/10 00:13:12;;;;;;;6.80;4.65;;;;;;;;;;5093418;28;20274;-64
2023/07/10 00:15:38;;;;;;;8.27;4.68;;;;;;;;;;5092341;28;20012;-64
2023/07/10 00:18:08;;;;;;;15.90;4.97;;;;;;;;;;5093215;28;20035;-64
2023/07/10 00:20:34;;;;;;;13.30;5.18;;;;;;;;;;5085740;28;20023;-64
2023/07/10 00:22:59;;;;;;;9.30;5.10;;;;;;;;;;5093439;28;20027;-64
2023/07/10 00:25:24;;;;;;;10.77;5.17;;;;;;;;;;5092677;28;20752;-64
2023/07/10 00:27:49;;;;;;;8.95;4.90;;;;;;;;;;5081405;28;20757;-64
2023/07/10 00:30:17;;;;;;;9.77;4.68;;;;;;;;;;5086899;28;20045;-64
2023/07/10 00:32:44;;;;;;;13.90;4.63;;;;;;;;;;5084282;28;20115;-64
2023/07/10 00:35:09;;;;;;;10.27;4.82;;;;;;;;;;5087644;28;20039;-64
2023/07/10 00:37:34;;;;;;;8.77;5.35;;;;;;;;;;5092705;28;20030;-64
2023/07/10 00:39:59;;;;;;;11.73;5.27;;;;;;;;;;5092223;28;20026;-64
2023/07/10 00:42:26;;;;;;;9.02;5.03;;;;;;;;;;5092568;28;20258;-64
2023/07/10 00:44:53;;;;;;;7.97;4.93;;;;;;;;;;5087667;28;20093;-64
2023/07/10 00:47:18;;;;;;;8.10;4.63;;;;;;;;;;5085325;28;20031;-64
2023/07/10 00:49:50;;;;;;;14.23;4.93;;;;;;;;;;5079855;28;20268;-64
2023/07/10 00:52:15;;;;;;;7.20;4.78;;;;;;;;;;5091517;28;20486;-64
2023/07/10 00:54:42;;;;;;;8.63;5.15;;;;;;;;;;5089485;28;20073;-64
2023/07/10 00:57:15;;;;;;;7.45;4.50;;;;;;;;;;5091834;28;20027;-64
2023/07/10 00:59:41;;;;;;;11.68;5.13;;;;;;;;;;5092272;28;20032;-64
2023/07/10 01:02:12;;;;;;;11.18;5.50;;;;;;;;;;5088243;28;20112;-64
2023/07/10 01:04:39;;;;;;;9.70;5.47;;;;;;;;;;5083380;28;20031;-64
2023/07/10 01:07:05;;;;;;;8.70;5.32;;;;;;;;;;5091739;28;20379;-64
2023/07/10 01:09:31;;;;;;;10.40;5.93;;;;;;;;;;5092946;28;20024;-64
2023/07/10 01:11:56;;;;;;;9.80;5.85;;;;;;;;;;5092157;28;20607;-64
2023/07/10 01:14:22;;;;;;;8.27;5.67;;;;;;;;;;5091799;28;20024;-64
2023/07/10 01:16:47;;;;;;;9.82;5.25;;;;;;;;;;5091778;28;20780;-64
2023/07/10 01:19:16;;;;;;;8.48;4.97;;;;;;;;;;5087478;28;20109;-64
2023/07/10 01:21:42;;;;;;;13.30;6.38;;;;;;;;;;5089185;28;20020;-64
2023/07/10 01:24:08;;;;;;;15.45;6.15;;;;;;;;;;5091806;28;20513;-64
2023/07/10 01:26:34;;;;;;;10.80;5.70;;;;;;;;;;5090945;28;20031;-64
2023/07/10 01:29:00;;;;;;;7.53;4.97;;;;;;;;;;5091784;28;20030;-64
2023/07/10 01:31:26;;;;;;;10.13;5.40;;;;;;;;;;5091617;28;20032;-64
2023/07/10 01:33:53;;;;;;;8.90;5.60;;;;;;;;;;5092057;28;20016;-64
2023/07/10 01:36:20;;;;;;;8.95;6.32;;;;;;;;;;5091543;28;20028;-64
2023/07/10 01:38:47;;;;;;;10.50;6.45;;;;;;;;;;5091038;28;20032;-64
2023/07/10 01:41:18;;;;;;;15.38;6.40;;;;;;;;;;5091025;28;20103;-64
2023/07/10 01:43:43;;;;;;;11.43;5.95;;;;;;;;;;5092266;28;20059;-64
2023/07/10 01:46:22;;;;;;;9.50;7.60;;;;;;;;;;5089637;28;20051;-64
2023/07/10 01:48:49;;;;;;;14.70;8.73;;;;;;;;;;5081715;28;20312;-64
2023/07/10 01:51:14;;;;;;;15.85;8.98;;;;;;;;;;5086785;28;20491;-64
2023/07/10 01:53:41;;;;;;;11.30;8.30;;;;;;;;;;5085093;28;20059;-64
2023/07/10 01:56:07;;;;;;;14.43;7.80;;;;;;;;;;5084487;28;20323;-64
2023/07/10 01:58:32;;;;;;;21.55;7.90;;;;;;;;;;5091618;28;20028;-64
2023/07/10 02:00:57;;;;;;;14.27;8.10;;;;;;;;;;5090811;28;20122;-64
2023/07/10 02:03:22;;;;;;;11.57;7.37;;;;;;;;;;5091405;28;20613;-64
2023/07/10 02:05:48;;;;;;;16.53;8.50;;;;;;;;;;5090233;28;20270;-64
2023/07/10 02:08:13;;;;;;;11.20;7.60;;;;;;;;;;5090665;28;20356;-64
2023/07/10 02:10:38;;;;;;;11.30;8.37;;;;;;;;;;5091692;28;20274;-64
2023/07/10 02:13:03;;;;;;;13.90;8.03;;;;;;;;;;5090622;28;20783;-64
2023/07/10 02:15:29;;;;;;;16.27;7.53;;;;;;;;;;5090537;28;20677;-64
2023/07/10 02:17:57;;;;;;;11.90;8.70;;;;;;;;;;5090570;28;20350;-64
2023/07/10 02:20:22;;;;;;;12.82;8.27;;;;;;;;;;5089906;28;20768;-64
2023/07/10 02:22:47;;;;;;;12.95;8.10;;;;;;;;;;5091014;28;20035;-64
2023/07/10 02:25:13;;;;;;;14.13;9.13;;;;;;;;;;5082368;28;20127;-64
2023/07/10 02:27:38;;;;;;;17.33;8.05;;;;;;;;;;5090967;28;20278;-64
2023/07/10 02:30:03;;;;;;;9.80;8.17;;;;;;;;;;5091148;28;20028;-65
2023/07/10 02:32:29;;;;;;;13.95;9.00;;;;;;;;;;5090775;28;20262;-64
2023/07/10 02:34:54;;;;;;;13.80;8.75;;;;;;;;;;5091107;28;20060;-64
2023/07/10 02:37:20;;;;;;;10.97;9.77;;;;;;;;;;5090527;28;20053;-63
2023/07/10 02:39:45;;;;;;;12.23;8.63;;;;;;;;;;5091524;28;20281;-63
2023/07/10 02:42:10;;;;;;;17.30;9.67;;;;;;;;;;5091299;28;20137;-63
2023/07/10 02:44:36;;;;;;;14.88;7.78;;;;;;;;;;5081107;28;20271;-65
2023/07/10 02:47:01;;;;;;;11.90;8.57;;;;;;;;;;5094708;28;20089;-64
2023/07/10 02:49:26;;;;;;;17.27;8.60;;;;;;;;;;5095003;28;20478;-65
2023/07/10 02:51:51;;;;;;;11.43;7.50;;;;;;;;;;5094434;28;20266;-65
2023/07/10 02:54:17;;;;;;;12.43;7.88;;;;;;;;;;5081609;28;20278;-64
2023/07/10 02:56:42;;;;;;;13.07;7.57;;;;;;;;;;5092383;28;20055;-64
2023/07/10 02:59:07;;;;;;;14.17;8.10;;;;;;;;;;5094450;28;20795;-64
2023/07/10 03:01:32;;;;;;;15.45;7.65;;;;;;;;;;5094102;28;20629;-64
2023/07/10 03:03:58;;;;;;;10.82;7.60;;;;;;;;;;5094159;28;20054;-65
2023/07/10 03:06:24;;;;;;;11.93;7.63;;;;;;;;;;5094769;28;20016;-64
2023/07/10 03:08:49;;;;;;;11.57;7.47;;;;;;;;;;5092422;28;20266;-64
2023/07/10 03:11:16;;;;;;;11.52;7.75;;;;;;;;;;5094394;28;20090;-65
2023/07/10 03:13:41;;;;;;;14.55;7.38;;;;;;;;;;5095050;28;20062;-64
2023/07/10 03:16:09;;;;;;;13.30;7.57;;;;;;;;;;5094468;28;20066;-64
2023/07/10 03:18:35;;;;;;;11.35;7.10;;;;;;;;;;5083828;28;20040;-64
2023/07/10 03:21:00;;;;;;;19.98;8.63;;;;;;;;;;5093172;28;20031;-64
2023/07/10 03:23:26;;;;;;;10.80;7.40;;;;;;;;;;5094301;28;20035;-64
2023/07/10 03:25:51;;;;;;;15.25;7.70;;;;;;;;;;5093858;28;20031;-64
2023/07/10 03:28:16;;;;;;;11.17;7.73;;;;;;;;;;5093672;28;20512;-64
2023/07/10 03:30:41;;;;;;;12.97;7.43;;;;;;;;;;5088729;28;20259;-65
2023/07/10 03:33:07;;;;;;;12.35;6.68;;;;;;;;;;5080717;28;20269;-64
2023/07/10 03:35:32;;;;;;;10.07;6.43;;;;;;;;;;5094131;28;20028;-64
2023/07/10 03:37:57;;;;;;;13.23;6.45;;;;;;;;;;5093716;28;20036;-63
2023/07/10 03:40:23;;;;;;;10.27;5.80;;;;;;;;;;5094119;28;20042;-63
2023/07/10 03:42:48;;;;;;;9.67;6.07;;;;;;;;;;5093705;28;20470;-63
2023/07/10 03:45:13;;;;;;;9.03;5.33;;;;;;;;;;5093618;28;20659;-65
2023/07/10 03:47:38;;;;;;;13.55;6.30;;;;;;;;;;5087234;28;20274;-64
2023/07/10 03:50:04;;;;;;;10.13;5.32;;;;;;;;;;5093706;28;20024;-65
2023/07/10 03:52:29;;;;;;;10.13;5.75;;;;;;;;;;5092840;28;20063;-63
2023/07/10 03:54:55;;;;;;;6.57;5.10;;;;;;;;;;5080183;28;20045;-63
2023/07/10 03:57:20;;;;;;;10.67;5.63;;;;;;;;;;5093615;28;20369;-63
2023/07/10 03:59:45;;;;;;;7.35;5.25;;;;;;;;;;5092902;28;20831;-63
2023/07/10 04:02:10;;;;;;;7.13;4.77;;;;;;;;;;5090589;28;20111;-65
2023/07/10 04:04:36;;;;;;;9.73;4.70;;;;;;;;;;5088090;28;21783;-63
2023/07/10 04:07:01;;;;;;;9.47;5.03;;;;;;;;;;5085107;28;20629;-63
2023/07/10 04:09:26;;;;;;;10.13;5.10;;;;;;;;;;5092476;28;20278;-63
2023/07/10 04:11:51;;;;;;;8.30;5.00;;;;;;;;;;5093448;28;20262;-63
2023/07/10 04:14:17;;;;;;;11.77;5.75;;;;;;;;;;5093065;28;20262;-63
2023/07/10 04:16:42;;;;;;;9.47;4.90;;;;;;;;;;5091014;28;20366;-63
2023/07/10 04:19:07;;;;;;;11.37;5.43;;;;;;;;;;5093421;28;20351;-64
2023/07/10 04:21:32;;;;;;;8.68;4.95;;;;;;;;;;5093596;28;20286;-64
2023/07/10 04:23:58;;;;;;;11.43;4.72;;;;;;;;;;5093303;28;20012;-64
2023/07/10 04:26:29;;;;;;;8.10;5.03;;;;;;;;;;5092451;28;20020;-64
2023/07/10 04:28:55;;;;;;;8.52;4.32;;;;;;;;;;5093341;28;20027;-64
2023/07/10 04:31:22;;;;;;;7.25;4.78;;;;;;;;;;5092194;28;20024;-64
2023/07/10 04:33:47;;;;;;;7.15;4.55;;;;;;;;;;5093477;28;20406;-64
2023/07/10 04:36:13;;;;;;;9.38;4.60;;;;;;;;;;5093144;28;20040;-64
2023/07/10 04:38:38;;;;;;;11.93;5.15;;;;;;;;;;5093232;28;20099;-64
2023/07/10 04:41:05;;;;;;;6.00;4.18;;;;;;;;;;5093491;28;20078;-64
2023/07/10 04:43:31;;;;;;;7.32;4.05;;;;;;;;;;5093126;28;20092;-64
2023/07/10 04:45:58;;;;;;;5.32;3.70;;;;;;;;;;5092850;28;20072;-65
2023/07/10 04:48:24;;;;;;;7.65;3.83;;;;;;;;;;5079242;28;20614;-64
2023/07/10 04:50:50;;;;;;;7.55;4.32;;;;;;;;;;5091893;28;20028;-64
2023/07/10 04:53:16;;;;;;;7.07;3.88;;;;;;;;;;5087574;28;20092;-64
2023/07/10 04:55:42;;;;;;;6.18;3.65;;;;;;;;;;5090907;28;20404;-64
2023/07/10 04:58:08;;;;;;;7.53;3.65;;;;;;;;;;5091146;28;20024;-64
2023/07/10 05:00:33;;;;;;;7.60;3.92;;;;;;;;;;5092698;28;20149;-64
2023/07/10 05:02:59;;;;;;;9.15;4.70;;;;;;;;;;5091817;28;20019;-64
2023/07/10 05:05:25;;;;;;;7.72;4.43;;;;;;;;;;5091844;28;20101;-64
2023/07/10 05:07:50;;;;;;;7.70;3.70;;;;;;;;;;5088941;28;20020;-64
2023/07/10 05:10:15;;;;;;;8.90;4.13;;;;;;;;;;5091845;28;20028;-64
2023/07/10 05:12:40;;;;;;;7.20;4.03;;;;;;;;;;5089750;28;20273;-64
2023/07/10 05:15:06;;;;;;;12.87;3.57;;;;;;;;;;5091468;28;20369;-64
2023/07/10 05:17:31;;;;;;;5.25;3.25;;;;;;;;;;5091192;28;20786;-64
2023/07/10 05:19:56;;;;;;;7.83;3.87;;;;;;;;;;5092167;28;20046;-64
2023/07/10 05:22:22;;;;;;;7.88;3.47;;;;;;;;;;5084032;28;20779;-64
2023/07/10 05:24:47;;;;;;;8.95;3.63;;;;;;;;;;5087285;28;20073;-63
2023/07/10 05:27:12;;;;;;;7.68;3.83;;;;;;;;;;5085024;28;20024;-63
2023/07/10 05:29:37;;;;;;;6.90;3.72;;;;;;;;;;5091520;28;20039;-63
2023/07/10 05:32:03;;;;;;;10.98;2.95;;;;;;;;;;5091755;28;20039;-64
2023/07/10 05:34:28;;;;;;;11.35;3.83;;;;;;;;;;5092650;28;20028;-64
2023/07/10 05:36:54;;;;;;;12.63;4.00;;;;;;;;;;5091987;28;20024;-63
2023/07/10 05:39:19;;;;;;;8.43;3.83;;;;;;;;;;5091904;28;20313;-63
2023/07/10 05:41:44;;;;;;;10.50;3.80;;;;;;;;;;5092483;28;20057;-64
2023/07/10 05:44:09;;;;;;;11.37;4.53;;;;;;;;;;5091895;28;20099;-64
2023/07/10 05:46:35;;;;;;;11.97;5.03;;;;;;;;;;5091806;28;20285;-64
2023/07/10 05:49:00;;;;;;;5.40;3.30;;;;;;;;;;5091819;28;20270;-64
2023/07/10 05:51:26;;;;;;;6.13;4.22;;;;;;;;;;5087296;28;20266;-64
2023/07/10 05:53:51;;;;;;;7.30;4.07;;;;;;;;;;5083050;28;20023;-64
2023/07/10 05:56:16;;;;;;;7.35;3.88;;;;;;;;;;5086211;28;20485;-64
2023/07/10 05:58:41;;;;;;;5.93;3.50;;;;;;;;;;5091654;28;20044;-64
2023/07/10 06:01:08;;;;;;;6.67;3.53;;;;;;;;;;5091489;28;20060;-64
2023/07/10 06:03:33;;;;;;;5.60;3.53;;;;;;;;;;5091528;28;20290;-64
2023/07/10 06:06:00;;;;;;;10.03;4.40;;;;;;;;;;5091312;28;20031;-64
2023/07/10 06:08:26;;;;;;;8.60;3.10;;;;;;;;;;5091314;28;20361;-64
2023/07/10 06:10:51;;;;;;;12.18;4.05;;;;;;;;;;5091680;28;20095;-64
2023/07/10 06:13:16;;;;;;;9.88;3.22;;;;;;;;;;5091179;28;20356;-64
2023/07/10 06:15:46;;;;;;;5.72;3.25;;;;;;;;;;5090237;28;20039;-64
2023/07/10 06:18:11;;;;;;;8.27;3.33;;;;;;;;;;5083743;28;20077;-64
2023/07/10 06:20:37;;;;;;;6.90;3.55;;;;;;;;;;5091152;28;20016;-64
2023/07/10 06:23:02;;;;;;;6.13;3.20;;;;;;;;;;5091162;28;20024;-64
2023/07/10 06:25:27;;;;;;;9.57;3.60;;;;;;;;;;5091155;28;20278;-64
2023/07/10 06:27:52;;;;;;;9.80;4.10;;;;;;;;;;5090640;28;20282;-64
2023/07/10 06:30:18;;;;;;;8.48;3.63;;;;;;;;;;5090920;28;20081;-64
2023/07/10 06:32:43;;;;;;;4.05;2.67;;;;;;;;;;5091444;28;20108;-64
2023/07/10 06:35:12;;;;;;;6.95;3.42;;;;;;;;;;5090899;28;20028;-64
2023/07/10 06:37:38;;;;;;;5.25;2.70;;;;;;;;;;5090667;28;20043;-64
2023/07/10 06:40:05;;;;;;;7.38;3.75;;;;;;;;;;5090677;28;20111;-64
2023/07/10 06:42:30;;;;;;;5.75;3.13;;;;;;;;;;5091136;28;20039;-64
2023/07/10 06:44:55;;;;;;;6.83;3.17;;;;;;;;;;5090486;28;20398;-64
2023/07/10 06:47:20;;;;;;;3.97;2.20;;;;;;;;;;5090057;28;20273;-64
2023/07/10 06:49:45;;;;;;;8.82;2.80;;;;;;;;;;5090281;28;20277;-64
2023/07/10 06:52:11;;;;;;;6.17;2.37;;;;;;;;;;5090976;28;20016;-64
2023/07/10 06:54:36;;;;;;;5.80;2.30;;;;;;;;;;5076819;28;20622;-64
2023/07/10 06:57:01;;;;;;;11.33;2.97;;;;;;;;;;5090896;28;20309;-64
2023/07/10 06:59:26;;;;;;;7.50;2.40;;;;;;;;;;5090607;28;20293;-66
2023/07/10 07:01:52;;;;;;;8.67;2.67;;;;;;;;;;5090448;28;20031;-66
2023/07/10 07:04:17;;;;;;;4.35;1.92;;;;;;;;;;5090049;28;20796;-63
2023/07/10 07:06:42;;;;;;;5.57;2.33;;;;;;;;;;5091020;28;20494;-66
2023/07/10 07:09:08;;;;;;;4.73;1.77;;;;;;;;;;5082135;28;20024;-64
2023/07/10 07:11:33;;;;;;;8.20;2.50;;;;;;;;;;5088205;28;20270;-64
2023/07/10 07:13:58;;;;;;;4.03;2.30;;;;;;;;;;5088673;28;20028;-64
2023/07/10 07:16:23;;;;;;;3.17;2.00;;;;;;;;;;5077106;28;20280;-64
2023/07/10 07:18:50;;;;;;;6.43;2.53;;;;;;;;;;5089966;28;20325;-64
2023/07/10 07:21:15;;;;;;;7.22;2.50;;;;;;;;;;5090193;28;20294;-66
2023/07/10 07:23:40;;;;;;;5.55;2.17;;;;;;;;;;5090260;28;20028;-64
2023/07/10 07:26:07;;;;;;;5.30;2.60;;;;;;;;;;5090336;28;20477;-65
2023/07/10 07:28:32;;;;;;;8.43;2.40;;;;;;;;;;5091808;28;20077;-64
2023/07/10 07:31:04;;;;;;;5.57;2.20;;;;;;;;;;5085928;28;20029;-63
2023/07/10 07:33:29;;;;;;;5.90;2.13;;;;;;;;;;5088880;28;20389;-63
2023/07/10 07:35:54;;;;;;;5.15;2.08;;;;;;;;;;5093694;28;20550;-64
2023/07/10 07:38:21;;;;;;;4.60;2.10;;;;;;;;;;5093772;28;20364;-64
2023/07/10 07:40:47;;;;;;;3.88;1.38;;;;;;;;;;5085477;28;20020;-65
2023/07/10 07:43:12;;;;;;;4.43;1.90;;;;;;;;;;5091634;28;20012;-65
2023/07/10 07:45:38;;;;;;;4.17;1.90;;;;;;;;;;5076027;28;20020;-64
2023/07/10 07:48:03;;;;;;;6.43;2.17;;;;;;;;;;5093731;28;20281;-64
2023/07/10 07:50:28;;;;;;;6.63;2.10;;;;;;;;;;5094413;28;20375;-64
2023/07/10 07:52:54;;;;;;;5.07;2.03;;;;;;;;;;5093862;28;20020;-64
2023/07/10 07:55:19;;;;;;;4.93;1.67;;;;;;;;;;5080898;28;20295;-65
2023/07/10 07:57:44;;;;;;;5.68;2.17;;;;;;;;;;5093717;28;20115;-65
2023/07/10 08:00:10;;;;;;;5.40;1.97;;;;;;;;;;5094353;28;20032;-64
2023/07/10 08:02:35;;;;;;;5.72;2.15;;;;;;;;;;5093540;28;20278;-64
2023/07/10 08:05:01;;;;;;;4.80;1.75;;;;;;;;;;5094096;28;20494;-65
2023/07/10 08:07:26;;;;;;;4.78;1.92;;;;;;;;;;5093835;28;20036;-65
2023/07/10 08:09:51;;;;;;;5.05;2.10;;;;;;;;;;5093415;28;20027;-65
2023/07/10 08:12:17;;;;;;;6.70;2.05;;;;;;;;;;5093849;28;20047;-64
2023/07/10 08:14:42;;;;;;;4.67;2.07;;;;;;;;;;5093756;28;20090;-65
2023/07/10 08:17:07;;;;;;;6.47;1.97;;;;;;;;;;5092926;28;20277;-64
2023/07/10 08:19:32;;;;;;;5.05;1.83;;;;;;;;;;5091909;28;20281;-64
2023/07/10 08:21:58;;;;;;;5.78;2.80;;;;;;;;;;5093643;28;20032;-64
2023/07/10 08:24:24;;;;;;;3.55;2.08;;;;;;;;;;5092954;28;20012;-65
2023/07/10 08:26:49;;;;;;;4.72;2.08;;;;;;;;;;5093606;28;20529;-64
2023/07/10 08:29:25;;;;;;;4.18;1.88;;;;;;;;;;5090397;28;20017;-65
2023/07/10 08:31:51;;;;;;;11.25;2.47;;;;;;;;;;5093479;28;20032;-65
2023/07/10 08:34:16;;;;;;;5.05;2.15;;;;;;;;;;5093073;28;20024;-64
2023/07/10 08:36:42;;;;;;;5.20;2.27;;;;;;;;;;5074452;28;20410;-65
2023/07/10 08:39:07;;;;;;;4.00;1.53;;;;;;;;;;5092346;28;20278;-65
2023/07/10 08:41:32;;;;;;;6.57;2.17;;;;;;;;;;5092807;28;20320;-65
2023/07/10 08:43:57;;;;;;;5.65;2.25;;;;;;;;;;5093478;28;20278;-64
2023/07/10 08:46:24;;;;;;;6.03;2.20;;;;;;;;;;5092201;28;21291;-65
2023/07/10 08:48:53;;;;;;;4.93;2.15;;;;;;;;;;5093253;28;20266;-65
2023/07/10 08:51:19;;;;;;;9.70;2.40;;;;;;;;;;5092748;28;20104;-65
2023/07/10 08:53:52;;;;;;;4.70;2.40;;;;;;;;;;5085633;28;20088;-64
2023/07/10 08:56:25;;;;;;;7.18;2.13;;;;;;;;;;5088122;28;20302;-65
2023/07/10 08:58:51;;;;;;;3.75;1.80;;;;;;;;;;5092964;28;20024;-64
2023/07/10 09:01:26;;;;;;;4.68;1.98;;;;;;;;;;5093004;28;20032;-64
2023/07/10 09:03:52;;;;;;;6.68;2.28;;;;;;;;;;5093027;28;20050;-64
2023/07/10 09:06:19;;;;;;;3.88;1.85;;;;;;;;;;5092699;28;20018;-65
2023/07/10 09:08:49;;;;;;;6.30;2.30;;;;;;;;;;5092944;28;20032;-65
2023/07/10 09:11:15;;;;;;;5.00;2.28;;;;;;;;;;5092470;28;20036;-65
2023/07/10 09:13:46;;;;;;;6.80;2.28;;;;;;;;;;5092562;28;20390;-64
2023/07/10 09:16:18;;;;;;;4.40;2.03;;;;;;;;;;5092772;28;20493;-65
2023/07/10 09:18:47;;;;;;;5.97;2.08;;;;;;;;;;5092414;28;20028;-65
2023/07/10 09:21:14;;;;;;;6.28;2.60;;;;;;;;;;5080924;28;20028;-65
2023/07/10 09:23:40;;;;;;;10.93;2.20;;;;;;;;;;5092472;28;20024;-64
2023/07/10 09:26:10;;;;;;;4.55;1.85;;;;;;;;;;5092367;28;20038;-64
2023/07/10 09:28:38;;;;;;;4.18;1.85;;;;;;;;;;5092545;28;20031;-64
2023/07/10 09:31:09;;;;;;;3.88;2.00;;;;;;;;;;5092647;28;20483;-64
2023/07/10 09:33:42;;;;;;;3.80;2.17;;;;;;;;;;5092577;28;20027;-63
2023/07/10 09:36:18;;;;;;;4.32;1.90;;;;;;;;;;5092388;28;20043;-64
2023/07/10 09:38:45;;;;;;;4.45;2.05;;;;;;;;;;5092190;28;20462;-65
2023/07/10 09:41:17;;;;;;;6.35;2.22;;;;;;;;;;5091659;28;20053;-64
2023/07/10 09:44:09;;;;;;;3.53;1.85;;;;;;;;;;5092342;28;20543;-65
2023/07/10 09:46:36;;;;;;;4.38;1.90;;;;;;;;;;5087965;28;20035;-64
2023/07/10 09:49:03;;;;;;;6.18;2.05;;;;;;;;;;5092185;28;20379;-64
2023/07/10 09:51:29;;;;;;;4.25;1.58;;;;;;;;;;5091919;28;20031;-65
2023/07/10 09:54:02;;;;;;;8.13;2.10;;;;;;;;;;5083905;28;20016;-64
2023/07/10 09:56:35;;;;;;;3.88;1.77;;;;;;;;;;5086887;28;20043;-65
2023/07/10 09:59:21;;;;;;;7.75;1.98;;;;;;;;;;5090630;28;20068;-65
2023/07/10 10:01:48;;;;;;;7.30;2.10;;;;;;;;;;5090636;28;20028;-66
2023/07/10 10:04:17;;;;;;;3.88;1.98;;;;;;;;;;5090662;28;20064;-62
2023/07/10 10:06:43;;;;;;;3.38;1.63;;;;;;;;;;5090177;28;20016;-64
2023/07/10 10:09:13;;;;;;;5.43;2.20;;;;;;;;;;5090516;28;20095;-66
2023/07/10 10:11:43;;;;;;;3.35;2.15;;;;;;;;;;5073466;28;20426;-64
2023/07/10 10:14:12;;;;;;;8.98;2.22;;;;;;;;;;5091930;28;20020;-64
2023/07/10 10:16:44;;;;;;;7.00;1.77;;;;;;;;;;5087073;28;20016;-64
2023/07/10 10:19:09;;;;;;;4.05;2.05;;;;;;;;;;5091899;28;20482;-64
2023/07/10 10:21:34;;;;;;;4.23;2.33;;;;;;;;;;5092001;28;20090;-63
2023/07/10 10:24:05;;;;;;;7.20;2.40;;;;;;;;;;5073481;28;20761;-64
2023/07/10 10:26:50;;;;;;;6.85;2.55;;;;;;;;;;5087951;28;20054;-65
2023/07/10 10:29:25;;;;;;;5.73;2.53;;;;;;;;;;5091522;28;20038;-65
2023/07/10 10:31:58;;;;;;;5.60;2.30;;;;;;;;;;5091467;28;20363;-66
2023/07/10 10:34:36;;;;;;;6.22;1.83;;;;;;;;;;5089339;28;20016;-65
2023/07/10 10:37:27;;;;;;;4.60;2.08;;;;;;;;;;5091473;28;20446;-64
2023/07/10 10:40:00;;;;;;;4.03;1.92;;;;;;;;;;5035329;28;20420;-66
2023/07/10 10:42:31;;;;;;;5.65;2.30;;;;;;;;;;5091508;28;20439;-66
2023/07/10 10:45:02;;;;;;;3.90;1.83;;;;;;;;;;5090734;28;20063;-68
2023/07/10 10:47:50;;;;;;;4.03;2.00;;;;;;;;;;5084034;28;20107;-65
2023/07/10 10:50:38;;;;;;;3.83;1.80;;;;;;;;;;5081872;28;20024;-66
2023/07/10 10:53:21;;;;;;;9.57;2.22;;;;;;;;;;5087099;28;20028;-65
2023/07/10 10:55:57;;;;;;;3.92;2.00;;;;;;;;;;5070397;28;20029;-65
2023/07/10 10:58:27;;;;;;;3.00;1.75;;;;;;;;;;5088043;28;20039;-65
2023/07/10 11:00:52;;;;;;;7.30;2.13;;;;;;;;;;5088875;28;20020;-65
2023/07/10 11:03:29;;;;;;;4.90;2.20;;;;;;;;;;5090951;28;20083;-67
2023/07/10 11:05:56;;;;;;;5.43;2.00;;;;;;;;;;5094050;28;20482;-67
2023/07/10 11:08:28;;;;;;;4.43;2.10;;;;;;;;;;5094056;28;20471;-66
2023/07/10 11:10:54;;;;;;;4.28;1.63;;;;;;;;;;5093479;28;20031;-67
2023/07/10 11:13:27;;;;;;;6.07;2.13;;;;;;;;;;5093773;28;20022;-67
2023/07/10 11:15:52;;;;;;;5.05;1.77;;;;;;;;;;5093174;28;20023;-66
2023/07/10 11:18:17;;;;;;;5.03;2.17;;;;;;;;;;5092596;28;20032;-64
2023/07/10 11:20:43;;;;;;;4.78;1.95;;;;;;;;;;5093199;28;20798;-66
2023/07/10 11:23:27;;;;;;;4.40;1.60;;;;;;;;;;5093571;28;20032;-65
2023/07/10 11:26:01;;;;;;;8.77;2.20;;;;;;;;;;5093157;28;20031;-65
2023/07/10 11:28:27;;;;;;;3.97;1.93;;;;;;;;;;5093530;28;20704;-66
2023/07/10 11:31:11;;;;;;;6.40;2.40;;;;;;;;;;5093487;28;20094;-65
2023/07/10 11:33:36;;;;;;;5.60;2.70;;;;;;;;;;5094030;28;20063;-64
2023/07/10 11:36:13;;;;;;;6.07;1.77;;;;;;;;;;5094045;28;20048;-64
2023/07/10 11:38:58;;;;;;;3.63;1.55;;;;;;;;;;5093197;28;20379;-63
2023/07/10 11:41:28;;;;;;;5.18;2.10;;;;;;;;;;5092109;28;20038;-66
2023/07/10 11:43:54;;;;;;;5.90;1.95;;;;;;;;;;5086605;28;20027;-63
2023/07/10 11:46:24;;;;;;;5.78;2.38;;;;;;;;;;5091952;28;20503;-66
2023/07/10 11:49:09;;;;;;;4.82;1.90;;;;;;;;;;5092835;28;20382;-65
2023/07/10 11:51:35;;;;;;;4.80;1.95;;;;;;;;;;5091507;28;20386;-64
2023/07/10 11:54:20;;;;;;;5.27;2.63;;;;;;;;;;5084031;28;20027;-65
2023/07/10 11:57:03;;;;;;;5.32;2.30;;;;;;;;;;5074305;28;20343;-66
2023/07/10 11:59:28;;;;;;;4.68;2.22;;;;;;;;;;5092707;28;20028;-66
2023/07/10 12:01:54;;;;;;;3.90;2.13;;;;;;;;;;5093143;28;20095;-66
2023/07/10 12:04:22;;;;;;;5.37;2.47;;;;;;;;;;5092950;28;20270;-66
2023/07/10 12:06:48;;;;;;;4.22;2.13;;;;;;;;;;5084965;28;20274;-66
2023/07/10 12:09:14;;;;;;;4.88;2.40;;;;;;;;;;5087913;28;20161;-66
2023/07/10 12:11:39;;;;;;;8.52;2.33;;;;;;;;;;5092845;28;20091;-65
2023/07/10 12:14:13;;;;;;;6.03;2.10;;;;;;;;;;5092882;28;20035;-67
2023/07/10 12:16:43;;;;;;;4.82;1.95;;;;;;;;;;5081098;28;20028;-65
2023/07/10 12:19:20;;;;;;;5.72;1.83;;;;;;;;;;5092833;28;20021;-66
2023/07/10 12:21:45;;;;;;;5.50;2.65;;;;;;;;;;5092989;28;20028;-66
2023/07/10 12:24:12;;;;;;;6.53;1.95;;;;;;;;;;5092245;28;20023;-65
2023/07/10 12:26:38;;;;;;;5.28;2.00;;;;;;;;;;5093352;28;20402;-65
2023/07/10 12:29:04;;;;;;;8.10;1.97;;;;;;;;;;5091732;28;20038;-67
2023/07/10 12:31:30;;;;;;;5.80;2.33;;;;;;;;;;5092391;28;20382;-66
2023/07/10 12:33:55;;;;;;;5.83;1.97;;;;;;;;;;5087458;28;20024;-67
2023/07/10 12:36:26;;;;;;;6.97;2.38;;;;;;;;;;5092469;28;20270;-68
2023/07/10 12:38:53;;;;;;;3.85;1.75;;;;;;;;;;5091108;28;20028;-67
2023/07/10 12:41:19;;;;;;;5.60;2.10;;;;;;;;;;5092738;28;20056;-69
2023/07/10 12:43:48;;;;;;;7.07;2.22;;;;;;;;;;5086843;28;20066;-65
2023/07/10 12:46:15;;;;;;;5.13;2.03;;;;;;;;;;5091836;28;20068;-66
2023/07/10 12:48:41;;;;;;;4.88;1.70;;;;;;;;;;5083998;28;20105;-64
2023/07/10 12:51:07;;;;;;;5.13;1.73;;;;;;;;;;5090923;28;20028;-65
2023/07/10 12:53:38;;;;;;;4.03;1.80;;;;;;;;;;5086913;28;20383;-66
2023/07/10 12:56:21;;;;;;;4.30;1.90;;;;;;;;;;5085322;28;20024;-66
2023/07/10 12:58:47;;;;;;;4.60;1.90;;;;;;;;;;5092131;28;20028;-64
2023/07/10 13:01:18;;;;;;;6.35;2.00;;;;;;;;;;5091587;28;20080;-65
2023/07/10 13:03:43;;;;;;;4.72;2.17;;;;;;;;;;5092039;28;20020;-65
2023/07/10 13:06:12;;;;;;;6.32;1.70;;;;;;;;;;5091897;28;20043;-64
2023/07/10 13:08:39;;;;;;;5.97;2.47;;;;;;;;;;5092305;28;20030;-63
2023/07/10 13:11:05;;;;;;;7.40;2.67;;;;;;;;;;5090905;28;20021;-64
2023/07/10 13:13:40;;;;;;;4.10;2.25;;;;;;;;;;5091282;28;20498;-64
2023/07/10 13:16:14;;;;;;;5.18;1.85;;;;;;;;;;5090238;28;20034;-65
2023/07/10 13:18:39;;;;;;;6.55;2.30;;;;;;;;;;5090917;28;20035;-65
2023/07/10 13:21:05;;;;;;;5.47;2.07;;;;;;;;;;5087938;28;20394;-65
2023/07/10 13:23:30;;;;;;;6.80;2.40;;;;;;;;;;5091394;28;20390;-66
2023/07/10 13:25:56;;;;;;;4.73;2.00;;;;;;;;;;5088752;28;20042;-65
2023/07/10 13:28:26;;;;;;;5.68;2.15;;;;;;;;;;5091413;28;20278;-65
2023/07/10 13:30:51;;;;;;;6.43;2.10;;;;;;;;;;5091151;28;20083;-65
2023/07/10 13:33:21;;;;;;;6.15;1.73;;;;;;;;;;5081360;28;20033;-65
2023/07/10 13:35:48;;;;;;;4.85;1.92;;;;;;;;;;5091663;28;20019;-65
2023/07/10 13:38:14;;;;;;;3.88;1.85;;;;;;;;;;5090750;28;20020;-66
2023/07/10 13:40:39;;;;;;;4.75;2.17;;;;;;;;;;5091128;28;20028;-66
2023/07/10 13:43:09;;;;;;;5.57;2.27;;;;;;;;;;5091189;28;20027;-66
2023/07/10 13:45:34;;;;;;;5.82;1.77;;;;;;;;;;5091195;28;20297;-65
2023/07/10 13:48:00;;;;;;;9.33;2.40;;;;;;;;;;5090664;28;20115;-65
2023/07/10 13:50:26;;;;;;;4.40;2.00;;;;;;;;;;5091642;28;20278;-65
2023/07/10 13:52:51;;;;;;;5.50;1.80;;;;;;;;;;5091342;28;20274;-64
2023/07/10 13:55:16;;;;;;;5.18;2.35;;;;;;;;;;5077707;28;20059;-64
2023/07/10 13:57:42;;;;;;;4.90;1.97;;;;;;;;;;5091002;28;20446;-65
2023/07/10 14:00:10;;;;;;;6.22;2.20;;;;;;;;;;5090670;28;20274;-66
2023/07/10 14:02:37;;;;;;;5.25;1.90;;;;;;;;;;5091155;28;20493;-67
2023/07/10 14:05:05;;;;;;;9.43;2.08;;;;;;;;;;5083707;28;20024;-67
2023/07/10 14:07:30;;;;;;;5.55;2.10;;;;;;;;;;5090885;28;20031;-66
2023/07/10 14:09:58;;;;;;;6.15;2.00;;;;;;;;;;5091028;28;20036;-66
2023/07/10 14:12:24;;;;;;;13.73;2.25;;;;;;;;;;5086253;28;20032;-66
2023/07/10 14:14:49;;;;;;;8.05;2.70;;;;;;;;;;5091234;28;20027;-67
2023/07/10 14:17:21;;;;;;;3.70;1.97;;;;;;;;;;5091564;28;20042;-67
2023/07/10 14:19:47;;;;;;;7.38;2.65;;;;;;;;;;5091215;28;20286;-67
2023/07/10 14:22:12;;;;;;;4.15;2.20;;;;;;;;;;5091506;28;20386;-67
2023/07/10 14:24:38;;;;;;;3.78;1.65;;;;;;;;;;5081355;28;20025;-67
2023/07/10 14:27:17;;;;;;;4.50;2.50;;;;;;;;;;5090294;28;20055;-66
2023/07/10 14:29:42;;;;;;;7.15;1.85;;;;;;;;;;5090583;28;20048;-70
2023/07/10 14:32:15;;;;;;;4.28;1.75;;;;;;;;;;5091067;28;20066;-67
2023/07/10 14:34:41;;;;;;;4.35;1.90;;;;;;;;;;5090783;28;20064;-66
2023/07/10 14:37:35;;;;;;;5.88;2.05;;;;;;;;;;5090283;28;20055;-66
2023/07/10 14:40:00;;;;;;;;;;;;;;;;;;5064772;28;20044;-68
2023/07/10 14:42:26;;;;;;;7.53;2.72;;;;;;;;;;5090972;28;19946;-67